Sevierville, TN

6:57 PM EST on December 21, 2014 (GMT -0500)
South Douglas Lake | Change Station
CLOSE
Current Station
Personal Weather Station
Location: Sevierville, TN
Elevation: 1050 ft
Nearby Weather Stations

Elev 1050 ft 35.92 °N, 83.49 °W | Updated 7 minutes ago

Overcast
Overcast
43.2 °F
Feels Like 43 °F
N
0.0
Wind Variable Wind from North
Gusts 1.0 mph

Today
High -- | Low -- °F
--% Chance of Precip.
Yesterday
High -- | Low -- °F
Precip. -- in
7:40 AM 5:24 PM
Waning Crescent, 0% visible
Pressure 30.11 in
Visibility 10.0 miles
Clouds Few 4300 ft
Overcast 25000 ft
Windchill 43 °F
Dew Point 36 °F
Humidity 77%
Rainfall 0.00 in
Snow Depth Not available.
UV 0 out of 12
Pollen .10 out of 12
Air Quality Not available.
Flu Activity Not available.
METAR KTYS 212353Z 02004KT 10SM FEW043 OVC250 07/02 A3010 RMK AO2 SLP194 T00670017 10117 20061 50001

More Conditions Fewer Conditions

Pressure 30.11 in
Visibility 10.0 miles
Clouds Few 4300 ft
Overcast 25000 ft
Windchill 43 °F
Dew Point 36 °F
Humidity 77%
Rainfall 0.00 in
Snow Depth Not available.
UV 0 out of 12
Pollen .10 out of 12
Air Quality Not available.
Flu Activity Not available.
METAR KTYS 212353Z 02004KT 10SM FEW043 OVC250 07/02 A3010 RMK AO2 SLP194 T00670017 10117 20061 50001

More Conditions Fewer Conditions

10-Day Weather Forecast

Almanac

Astronomy

Dec. 21, 2014 Rise Set
Actual Time
Civil Twilight
Nautical Twilight
Astronomical Twilight
Moon
Length of Visible Light
Length of Day
Tomorrow will be .
, % of the Moon is Illuminated

Today's Extremes

State Highs State Lows

Community

WunderPhotos

Upload Photos

1,779,505 photos uploaded!

WunderBlogs® & News

Nearby

Air Quality

  Air Quality AQ Index Pollutant
Not available.

Snow Depth

Station Depth Elevation

Earthquake Activity

City Distance Mag. Time & Date
Minimum magnitude displayed is 2.5.

Coastal Water Temperatures

Place Temperature

Nearby Weather Stations